Wetterstation Vordersexau
Wetterdaten: Woche 03.08.15 - 09.08.15 (KW32)
Datum Zeit Temp. A. Feuchte A. Luftdruck Regen Wind Richtung Taupunkt Windchill Windben
03.08.2015 00:00 17,6 C 68 % 1014,5 hPa 0,0 l/m 0,0 km/h O 11,6 C 17,6 C 0,0 km/h
03.08.2015 01:00 15,9 C 74 % 1014,6 hPa 0,0 l/m 0,0 km/h O-NO 11,3 C 15,9 C 0,0 km/h
03.08.2015 02:00 15,2 C 76 % 1014,7 hPa 0,0 l/m 0,0 km/h O-SO 11,0 C 15,2 C 0,0 km/h
03.08.2015 03:00 14,5 C 79 % 1014,3 hPa 0,0 l/m 0,0 km/h O-SO 10,9 C 14,5 C 0,0 km/h
03.08.2015 04:00 14,2 C 79 % 1014,2 hPa 0,0 l/m 0,0 km/h O-SO 10,6 C 14,2 C 0,0 km/h
03.08.2015 05:00 13,6 C 80 % 1014,3 hPa 0,0 l/m 0,0 km/h O 10,2 C 13,6 C 0,0 km/h
03.08.2015 06:00 13,4 C 81 % 1014,6 hPa 0,0 l/m 0,0 km/h N-NO 10,2 C 13,4 C 0,0 km/h
03.08.2015 07:00 14,1 C 82 % 1014,7 hPa 0,0 l/m 0,0 km/h SO 11,1 C 14,1 C 0,0 km/h
03.08.2015 08:00 22,4 C 67 % 1014,8 hPa 0,0 l/m 0,0 km/h S-SO 16,0 C 22,4 C 0,0 km/h
03.08.2015 09:00 29,0 C 47 % 1015,1 hPa 0,0 l/m 0,0 km/h W 16,5 C 29,0 C 0,0 km/h
03.08.2015 10:00 31,4 C 40 % 1015,2 hPa 0,0 l/m 0,0 km/h W 16,1 C 31,4 C 0,0 km/h
03.08.2015 11:00 32,1 C 37 % 1015,5 hPa 0,0 l/m 0,0 km/h SW 15,5 C 32,1 C 0,0 km/h
03.08.2015 12:00 31,5 C 40 % 1015,1 hPa 0,0 l/m 1,9 km/h W-SW 16,2 C 31,5 C 1,1 km/h
03.08.2015 13:00 33,7 C 38 % 1014,7 hPa 0,0 l/m 5,8 km/h S-SW 17,4 C 33,7 C 3,2 km/h
03.08.2015 14:00 34,9 C 34 % 1014,4 hPa 0,0 l/m 8,4 km/h N-NO 16,7 C 34,9 C 4,7 km/h
03.08.2015 15:00 36,0 C 31 % 1013,9 hPa 0,0 l/m 0,0 km/h S-SO 16,2 C 36,0 C 0,0 km/h
03.08.2015 16:00 36,2 C 30 % 1013,3 hPa 0,0 l/m 11,7 km/h SW 15,8 C 36,2 C 6,5 km/h
03.08.2015 17:00 39,6 C 26 % 1013,1 hPa 0,0 l/m 0,0 km/h S 16,5 C 39,6 C 0,0 km/h
03.08.2015 18:00 42,9 C 22 % 1012,4 hPa 0,0 l/m 0,0 km/h SO 16,6 C 42,9 C 0,0 km/h
03.08.2015 19:00 41,2 C 23 % 1011,9 hPa 0,0 l/m 5,8 km/h S-SO 15,9 C 41,2 C 3,2 km/h
03.08.2015 20:00 32,3 C 34 % 1011,9 hPa 0,0 l/m 0,0 km/h SO 14,4 C 32,3 C 0,0 km/h
03.08.2015 21:00 25,6 C 48 % 1011,9 hPa 0,0 l/m 0,0 km/h SO 13,8 C 25,6 C 0,0 km/h
03.08.2015 22:00 21,9 C 58 % 1011,9 hPa 0,0 l/m 0,0 km/h S-SO 13,3 C 21,9 C 0,0 km/h
03.08.2015 23:00 21,1 C 61 % 1011,9 hPa 0,0 l/m 1,9 km/h S-SO 13,3 C 21,1 C 1,1 km/h
04.08.2015 00:00 20,3 C 64 % 1011,6 hPa 0,0 l/m 0,0 km/h S-SO 13,3 C 20,3 C 0,0 km/h
04.08.2015 01:00 19,8 C 66 % 1012,1 hPa 0,0 l/m 14,3 km/h N-NO 13,3 C 17,2 C 7,9 km/h
04.08.2015 02:00 18,4 C 70 % 1011,9 hPa 0,0 l/m 0,0 km/h S-SO 12,8 C 18,4 C 0,0 km/h
04.08.2015 03:00 17,8 C 72 % 1011,4 hPa 0,0 l/m 0,0 km/h SO 12,7 C 17,8 C 0,0 km/h
04.08.2015 04:00 17,3 C 73 % 1010,8 hPa 0,0 l/m 0,0 km/h O-NO 12,4 C 17,3 C 0,0 km/h
04.08.2015 05:00 17,1 C 74 % 1010,6 hPa 0,0 l/m 0,0 km/h NO 12,4 C 17,1 C 0,0 km/h
04.08.2015 06:00 17,0 C 74 % 1010,5 hPa 0,0 l/m 0,0 km/h NO 12,3 C 17,0 C 0,0 km/h
04.08.2015 07:00 17,2 C 76 % 1010,4 hPa 0,0 l/m 0,0 km/h O 12,9 C 17,2 C 0,0 km/h
04.08.2015 08:00 19,9 C 72 % 1010,3 hPa 0,0 l/m 0,0 km/h O-NO 14,7 C 19,9 C 0,0 km/h
04.08.2015 09:00 24,4 C 60 % 1011,5 hPa 0,0 l/m 0,0 km/h N-NO 16,1 C 24,4 C 0,0 km/h
04.08.2015 10:00 23,6 C 62 % 1013,6 hPa 0,0 l/m 0,0 km/h S-SW 15,9 C 23,6 C 0,0 km/h
04.08.2015 11:00 26,3 C 57 % 1014,1 hPa 0,0 l/m 0,0 km/h NW 17,1 C 26,3 C 0,0 km/h
04.08.2015 12:00 23,4 C 62 % 1014,7 hPa 0,0 l/m 0,6 km/h W-NW 15,7 C 23,4 C 0,4 km/h
04.08.2015 13:00 20,8 C 77 % 1015,1 hPa 0,0 l/m 9,7 km/h W-SW 16,6 C 19,6 C 5,4 km/h
04.08.2015 14:00 20,8 C 80 % 1015,8 hPa 0,4 l/m 8,4 km/h S-SW 17,2 C 20,0 C 4,7 km/h
04.08.2015 15:00 23,9 C 70 % 1015,2 hPa 0,0 l/m 0,0 km/h W-NW 18,1 C 23,9 C 0,0 km/h
04.08.2015 16:00 26,3 C 60 % 1014,8 hPa 0,0 l/m 2,6 km/h W 17,9 C 26,3 C 1,4 km/h
04.08.2015 17:00 24,9 C 61 % 1014,8 hPa 0,0 l/m 2,6 km/h W 16,8 C 24,9 C 1,4 km/h
04.08.2015 18:00 23,9 C 65 % 1014,8 hPa 0,0 l/m 0,0 km/h NO 16,9 C 23,9 C 0,0 km/h
04.08.2015 19:00 22,2 C 71 % 1015,3 hPa 0,0 l/m 17,5 km/h S-SO 16,7 C 19,5 C 9,7 km/h
04.08.2015 20:00 21,8 C 74 % 1015,8 hPa 0,0 l/m 0,0 km/h NO 17,0 C 21,8 C 0,0 km/h
04.08.2015 21:00 19,4 C 78 % 1015,9 hPa 0,0 l/m 0,0 km/h O-NO 15,5 C 19,4 C 0,0 km/h
04.08.2015 22:00 18,6 C 81 % 1016,8 hPa 0,0 l/m 0,0 km/h O-NO 15,3 C 18,6 C 0,0 km/h
04.08.2015 23:00 18,1 C 82 % 1017,0 hPa 0,0 l/m 0,0 km/h O 15,0 C 18,1 C 0,0 km/h
05.08.2015 00:00 17,1 C 82 % 1016,7 hPa 0,0 l/m 0,0 km/h O 14,0 C 17,1 C 0,0 km/h
05.08.2015 01:00 15,6 C 83 % 1017,0 hPa 0,0 l/m 0,0 km/h O-NO 12,7 C 15,6 C 0,0 km/h
05.08.2015 02:00 15,6 C 82 % 1016,7 hPa 0,0 l/m 0,0 km/h O 12,5 C 15,6 C 0,0 km/h
05.08.2015 03:00 15,2 C 82 % 1016,4 hPa 0,0 l/m 0,0 km/h SO 12,1 C 15,2 C 0,0 km/h
05.08.2015 04:00 14,4 C 83 % 1016,3 hPa 0,0 l/m 0,0 km/h SO 11,5 C 14,4 C 0,0 km/h
05.08.2015 05:00 13,6 C 82 % 1016,2 hPa 0,0 l/m 0,0 km/h O 10,6 C 13,6 C 0,0 km/h
05.08.2015 06:00 13,4 C 81 % 1015,9 hPa 0,0 l/m 0,0 km/h NO 10,2 C 13,4 C 0,0 km/h
05.08.2015 07:00 13,5 C 80 % 1016,0 hPa 0,0 l/m 0,0 km/h NW 10,1 C 13,5 C 0,0 km/h
05.08.2015 08:00 20,3 C 81 % 1016,4 hPa 0,0 l/m 0,0 km/h N 16,9 C 20,3 C 0,0 km/h
05.08.2015 09:00 24,1 C 67 % 1016,5 hPa 0,0 l/m 0,0 km/h NW 17,6 C 24,1 C 0,0 km/h
05.08.2015 10:00 24,4 C 64 % 1016,5 hPa 0,0 l/m 3,9 km/h W-NW 17,1 C 24,4 C 2,2 km/h
05.08.2015 11:00 26,3 C 61 % 1015,9 hPa 0,0 l/m 3,9 km/h NO 18,2 C 26,3 C 2,2 km/h
05.08.2015 12:00 27,0 C 57 % 1015,3 hPa 0,0 l/m 0,0 km/h NO 17,7 C 27,0 C 0,0 km/h
05.08.2015 13:00 29,8 C 52 % 1014,4 hPa 0,0 l/m 7,8 km/h W 18,9 C 29,7 C 4,3 km/h
05.08.2015 14:00 31,1 C 51 % 1013,5 hPa 0,0 l/m 14,3 km/h N-NW 19,7 C 30,7 C 7,9 km/h
05.08.2015 15:00 32,6 C 48 % 1013,0 hPa 0,0 l/m 0,0 km/h W 20,1 C 32,6 C 0,0 km/h
05.08.2015 16:00 33,3 C 46 % 1012,3 hPa 0,0 l/m 3,9 km/h NW 20,1 C 33,3 C 2,2 km/h
05.08.2015 17:00 36,5 C 38 % 1011,9 hPa 0,0 l/m 0,0 km/h N-NO 19,8 C 36,5 C 0,0 km/h
05.08.2015 18:00 38,9 C 31 % 1011,4 hPa 0,0 l/m 0,0 km/h N-NO 18,7 C 38,9 C 0,0 km/h
05.08.2015 19:00 37,9 C 32 % 1011,3 hPa 0,0 l/m 0,0 km/h N-NO 18,3 C 37,9 C 0,0 km/h
05.08.2015 20:00 30,4 C 43 % 1011,5 hPa 0,0 l/m 0,0 km/h O-NO 16,4 C 30,4 C 0,0 km/h
05.08.2015 21:00 25,1 C 58 % 1012,0 hPa 0,0 l/m 0,0 km/h SO 16,2 C 25,1 C 0,0 km/h
05.08.2015 22:00 22,4 C 65 % 1012,2 hPa 0,0 l/m 0,0 km/h SO 15,5 C 22,4 C 0,0 km/h
05.08.2015 23:00 20,5 C 71 % 1012,2 hPa 0,0 l/m 0,0 km/h N 15,1 C 20,5 C 0,0 km/h
06.08.2015 00:00 19,9 C 76 % 1012,9 hPa 0,0 l/m 0,0 km/h NO 15,5 C 19,9 C 0,0 km/h
06.08.2015 01:00 19,3 C 79 % 1012,8 hPa 0,0 l/m 0,0 km/h NO 15,6 C 19,3 C 0,0 km/h
06.08.2015 02:00 18,3 C 80 % 1012,3 hPa 0,0 l/m 0,0 km/h NO 14,8 C 18,3 C 0,0 km/h
06.08.2015 03:00 17,6 C 81 % 1012,4 hPa 0,0 l/m 0,0 km/h O 14,3 C 17,6 C 0,0 km/h
06.08.2015 04:00 16,9 C 82 % 1012,3 hPa 0,0 l/m 0,0 km/h N-NO 13,8 C 16,9 C 0,0 km/h
06.08.2015 05:00 17,9 C 82 % 1012,8 hPa 0,0 l/m 0,0 km/h O-SO 14,8 C 17,9 C 0,0 km/h
06.08.2015 06:00 18,3 C 81 % 1012,7 hPa 0,0 l/m 0,0 km/h SO 15,0 C 18,3 C 0,0 km/h
06.08.2015 07:00 18,8 C 81 % 1012,8 hPa 0,0 l/m 0,0 km/h NO 15,5 C 18,8 C 0,0 km/h
06.08.2015 08:00 21,6 C 78 % 1013,2 hPa 0,0 l/m 0,0 km/h O-NO 17,6 C 21,6 C 0,0 km/h
06.08.2015 09:00 22,9 C 72 % 1013,6 hPa 0,0 l/m 0,0 km/h SO 17,6 C 22,9 C 0,0 km/h
06.08.2015 10:00 31,8 C 50 % 1013,5 hPa 0,0 l/m 0,0 km/h W-NW 20,1 C 31,8 C 0,0 km/h
06.08.2015 11:00 35,5 C 38 % 1013,6 hPa 0,0 l/m 0,0 km/h W 19,0 C 35,5 C 0,0 km/h
06.08.2015 12:00 35,0 C 37 % 1013,5 hPa 0,0 l/m 9,1 km/h W-NW 18,1 C 35,0 C 5,0 km/h
06.08.2015 13:00 36,1 C 35 % 1013,1 hPa 0,0 l/m 22,7 km/h W 18,2 C 36,1 C 12,6 km/h
06.08.2015 14:00 37,3 C 30 % 1012,8 hPa 0,0 l/m 25,3 km/h S-SW 16,8 C 37,3 C 14,0 km/h
06.08.2015 15:00 39,6 C 26 % 1012,5 hPa 0,0 l/m 1,3 km/h W 16,5 C 39,6 C 0,7 km/h
06.08.2015 16:00 39,9 C 27 % 1012,2 hPa 0,0 l/m 3,2 km/h S-SO 17,3 C 39,9 C 1,8 km/h
06.08.2015 17:00 42,2 C 23 % 1011,9 hPa 0,0 l/m 0,0 km/h S-SO 16,7 C 42,2 C 0,0 km/h
06.08.2015 18:00 46,4 C 20 % 1011,7 hPa 0,0 l/m 3,2 km/h N-NO 17,9 C 46,4 C 1,8 km/h
06.08.2015 19:00 41,9 C 22 % 1011,5 hPa 0,0 l/m 4,5 km/h N-NO 15,7 C 41,9 C 2,5 km/h
06.08.2015 20:00 34,5 C 32 % 1011,5 hPa 0,0 l/m 0,0 km/h O-SO 15,4 C 34,5 C 0,0 km/h
06.08.2015 21:00 27,6 C 45 % 1011,7 hPa 0,0 l/m 0,0 km/h SO 14,6 C 27,6 C 0,0 km/h
06.08.2015 22:00 24,9 C 53 % 1011,8 hPa 0,0 l/m 0,0 km/h SO 14,6 C 24,9 C 0,0 km/h
06.08.2015 23:00 23,8 C 56 % 1012,0 hPa 0,0 l/m 0,0 km/h NO 14,5 C 23,8 C 0,0 km/h
07.08.2015 00:00 23,6 C 57 % 1012,0 hPa 0,0 l/m 0,0 km/h NO 14,6 C 23,6 C 0,0 km/h
07.08.2015 01:00 22,8 C 58 % 1012,0 hPa 0,0 l/m 0,0 km/h S 14,1 C 22,8 C 0,0 km/h
07.08.2015 02:00 22,9 C 58 % 1011,6 hPa 0,0 l/m 0,0 km/h S-SO 14,2 C 22,9 C 0,0 km/h
07.08.2015 03:00 22,2 C 59 % 1011,5 hPa 0,0 l/m 0,0 km/h S-SO 13,8 C 22,2 C 0,0 km/h
07.08.2015 04:00 19,6 C 68 % 1011,6 hPa 0,0 l/m 0,0 km/h NO 13,5 C 19,6 C 0,0 km/h
07.08.2015 05:00 18,9 C 72 % 1011,3 hPa 0,0 l/m 0,0 km/h SO 13,7 C 18,9 C 0,0 km/h
07.08.2015 06:00 17,8 C 75 % 1011,8 hPa 0,0 l/m 0,0 km/h O-NO 13,3 C 17,8 C 0,0 km/h
07.08.2015 07:00 18,6 C 75 % 1012,1 hPa 0,0 l/m 0,0 km/h NO 14,1 C 18,6 C 0,0 km/h
07.08.2015 08:00 25,3 C 62 % 1012,6 hPa 0,0 l/m 0,0 km/h N-NO 17,5 C 25,3 C 0,0 km/h
07.08.2015 09:00 31,1 C 47 % 1012,8 hPa 0,0 l/m 0,0 km/h S 18,4 C 31,1 C 0,0 km/h
07.08.2015 10:00 34,7 C 40 % 1012,4 hPa 0,0 l/m 0,0 km/h S 19,1 C 34,7 C 0,0 km/h
07.08.2015 11:00 37,4 C 33 % 1012,6 hPa 0,0 l/m 5,2 km/h W 18,4 C 37,4 C 2,9 km/h
07.08.2015 12:00 37,1 C 32 % 1012,4 hPa 0,0 l/m 2,6 km/h W 17,6 C 37,1 C 1,4 km/h
07.08.2015 13:00 39,1 C 26 % 1012,2 hPa 0,0 l/m 1,9 km/h W 16,0 C 39,1 C 1,1 km/h
07.08.2015 14:00 40,1 C 26 % 1011,9 hPa 0,0 l/m 0,0 km/h W-NW 16,9 C 40,1 C 0,0 km/h
07.08.2015 15:00 41,3 C 23 % 1011,5 hPa 0,0 l/m 6,5 km/h W-NW 15,9 C 41,3 C 3,6 km/h
07.08.2015 16:00 41,1 C 22 % 1011,4 hPa 0,0 l/m 0,6 km/h W-NW 15,1 C 41,1 C 0,4 km/h
07.08.2015 17:00 44,9 C 17 % 1011,2 hPa 0,0 l/m 7,8 km/h N-NO 14,1 C 44,9 C 4,3 km/h
07.08.2015 18:00 45,1 C 14 % 1010,8 hPa 0,0 l/m 0,0 km/h NO 11,3 C 45,1 C 0,0 km/h
07.08.2015 19:00 44,4 C 14 % 1010,3 hPa 0,0 l/m 0,0 km/h N-NO 10,8 C 44,4 C 0,0 km/h
07.08.2015 20:00 36,0 C 24 % 1010,6 hPa 0,0 l/m 0,0 km/h SO 12,2 C 36,0 C 0,0 km/h
07.08.2015 21:00 28,7 C 39 % 1011,0 hPa 0,0 l/m 0,0 km/h SO 13,4 C 28,7 C 0,0 km/h
07.08.2015 22:00 26,4 C 47 % 1011,1 hPa 0,0 l/m 0,0 km/h O-SO 14,2 C 26,4 C 0,0 km/h
07.08.2015 23:00 25,4 C 51 % 1012,0 hPa 0,0 l/m 0,0 km/h W-SW 14,5 C 25,4 C 0,0 km/h
08.08.2015 00:00 26,4 C 50 % 1014,6 hPa 0,0 l/m 5,8 km/h N-NO 15,1 C 26,4 C 3,2 km/h
08.08.2015 01:00 25,9 C 50 % 1014,4 hPa 0,0 l/m 0,0 km/h O-NO 14,7 C 25,9 C 0,0 km/h
08.08.2015 02:00 24,5 C 51 % 1013,2 hPa 0,0 l/m 0,0 km/h W 13,7 C 24,5 C 0,0 km/h
08.08.2015 03:00 24,6 C 53 % 1013,0 hPa 0,0 l/m 0,0 km/h O-NO 14,4 C 24,6 C 0,0 km/h
08.08.2015 04:00 22,1 C 60 % 1013,8 hPa 0,0 l/m 0,0 km/h O 14,0 C 22,1 C 0,0 km/h
08.08.2015 05:00 19,9 C 66 % 1014,3 hPa 0,0 l/m 0,0 km/h SO 13,4 C 19,9 C 0,0 km/h
08.08.2015 06:00 19,2 C 69 % 1014,5 hPa 0,0 l/m 0,0 km/h SO 13,4 C 19,2 C 0,0 km/h
08.08.2015 07:00 18,6 C 71 % 1015,3 hPa 0,0 l/m 0,0 km/h S-SO 13,2 C 18,6 C 0,0 km/h
08.08.2015 08:00 26,1 C 59 % 1015,8 hPa 0,0 l/m 0,0 km/h S-SO 17,4 C 26,1 C 0,0 km/h
08.08.2015 09:00 30,3 C 45 % 1015,6 hPa 0,0 l/m 12,3 km/h W 17,0 C 29,9 C 6,8 km/h
08.08.2015 10:00 34,7 C 37 % 1016,0 hPa 0,0 l/m 7,1 km/h W 17,8 C 34,7 C 4,0 km/h
08.08.2015 11:00 36,3 C 32 % 1016,3 hPa 0,0 l/m 6,5 km/h NO 16,9 C 36,3 C 3,6 km/h
08.08.2015 12:00 36,0 C 32 % 1016,3 hPa 0,0 l/m 11,0 km/h N-NO 16,7 C 36,0 C 6,1 km/h
08.08.2015 13:00 34,9 C 34 % 1016,6 hPa 0,0 l/m 0,0 km/h N 16,7 C 34,9 C 0,0 km/h
08.08.2015 14:00 34,5 C 35 % 1016,6 hPa 0,0 l/m 15,6 km/h N-NW 16,8 C 34,5 C 8,6 km/h
08.08.2015 15:00 36,1 C 33 % 1015,9 hPa 0,0 l/m 24,0 km/h N-NO 17,2 C 36,1 C 13,3 km/h
08.08.2015 16:00 33,9 C 38 % 1015,7 hPa 0,0 l/m 0,0 km/h N 17,5 C 33,9 C 0,0 km/h
08.08.2015 17:00 32,6 C 45 % 1015,3 hPa 0,0 l/m 6,5 km/h NO 19,1 C 32,6 C 3,6 km/h
08.08.2015 18:00 36,1 C 37 % 1015,2 hPa 0,0 l/m 12,3 km/h NO 19,1 C 36,1 C 6,8 km/h
08.08.2015 19:00 33,9 C 40 % 1015,5 hPa 0,0 l/m 0,0 km/h NO 18,4 C 33,9 C 0,0 km/h
08.08.2015 20:00 29,7 C 50 % 1015,7 hPa 0,0 l/m 0,0 km/h N-NO 18,1 C 29,7 C 0,0 km/h
08.08.2015 21:00 26,9 C 55 % 1015,6 hPa 0,0 l/m 0,0 km/h NO 17,1 C 26,9 C 0,0 km/h
08.08.2015 22:00 23,8 C 66 % 1015,8 hPa 0,0 l/m 0,0 km/h W-NW 17,1 C 23,8 C 0,0 km/h
08.08.2015 23:00 22,8 C 71 % 1015,9 hPa 0,0 l/m 0,0 km/h N 17,3 C 22,8 C 0,0 km/h
09.08.2015 00:00 21,6 C 75 % 1015,9 hPa 0,0 l/m 0,0 km/h W 17,0 C 21,6 C 0,0 km/h
09.08.2015 01:00 21,4 C 75 % 1016,3 hPa 0,0 l/m 0,0 km/h W-NW 16,8 C 21,4 C 0,0 km/h
09.08.2015 02:00 20,9 C 77 % 1015,1 hPa 0,0 l/m 0,0 km/h S 16,7 C 20,9 C 0,0 km/h
09.08.2015 03:00 20,6 C 79 % 1014,5 hPa 0,0 l/m 0,0 km/h W 16,8 C 20,6 C 0,0 km/h
09.08.2015 04:00 20,3 C 79 % 1014,3 hPa 0,0 l/m 0,0 km/h S-SW 16,5 C 20,3 C 0,0 km/h
09.08.2015 05:00 19,8 C 80 % 1014,0 hPa 0,0 l/m 0,0 km/h S-SW 16,2 C 19,8 C 0,0 km/h
09.08.2015 06:00 19,4 C 80 % 1014,1 hPa 0,0 l/m 0,0 km/h SW 15,9 C 19,4 C 0,0 km/h
09.08.2015 07:00 19,4 C 81 % 1013,7 hPa 0,0 l/m 0,0 km/h W 16,1 C 19,4 C 0,0 km/h
09.08.2015 08:00 20,8 C 79 % 1014,0 hPa 0,0 l/m 0,0 km/h W-SW 17,0 C 20,8 C 0,0 km/h
09.08.2015 09:00 20,9 C 78 % 1014,3 hPa 0,0 l/m 0,0 km/h W-SW 16,9 C 20,9 C 0,0 km/h
09.08.2015 10:00 22,8 C 74 % 1014,9 hPa 0,0 l/m 3,2 km/h S 17,9 C 22,8 C 1,8 km/h
09.08.2015 11:00 25,1 C 68 % 1015,3 hPa 0,0 l/m 0,0 km/h S-SW 18,8 C 25,1 C 0,0 km/h
09.08.2015 12:00 28,3 C 58 % 1015,3 hPa 0,0 l/m 0,0 km/h SW 19,2 C 28,3 C 0,0 km/h
09.08.2015 13:00 30,9 C 52 % 1015,0 hPa 0,0 l/m 8,4 km/h N-NO 19,9 C 30,8 C 4,7 km/h
09.08.2015 14:00 31,5 C 48 % 1014,7 hPa 0,0 l/m 3,9 km/h W-NW 19,1 C 31,5 C 2,2 km/h
09.08.2015 15:00 28,6 C 54 % 1014,8 hPa 0,0 l/m 0,0 km/h N-NO 18,4 C 28,6 C 0,0 km/h
09.08.2015 16:00 28,9 C 54 % 1014,5 hPa 0,0 l/m 0,0 km/h N 18,6 C 28,9 C 0,0 km/h
09.08.2015 17:00 30,5 C 52 % 1014,0 hPa 0,0 l/m 0,0 km/h N-NW 19,5 C 30,5 C 0,0 km/h
09.08.2015 18:00 30,3 C 51 % 1013,7 hPa 0,0 l/m 0,0 km/h NW 19,0 C 30,3 C 0,0 km/h
09.08.2015 19:00 26,9 C 59 % 1013,8 hPa 0,0 l/m 2,6 km/h W 18,2 C 26,9 C 1,4 km/h
09.08.2015 20:00 24,3 C 69 % 1014,2 hPa 0,0 l/m 9,7 km/h W 18,2 C 23,5 C 5,4 km/h
09.08.2015 21:00 23,4 C 71 % 1014,5 hPa 0,0 l/m 0,0 km/h W 17,8 C 23,4 C 0,0 km/h
09.08.2015 22:00 22,7 C 73 % 1014,6 hPa 0,0 l/m 0,0 km/h SW 17,6 C 22,7 C 0,0 km/h
09.08.2015 23:00 21,1 C 80 % 1015,3 hPa 2,1 l/m 0,0 km/h S 17,5 C 21,1 C 0,0 km/h
Min-Datum _ 03.08.15 07.08.15 04.08.15 - 03.08.15 - 05.08.15 03.08.15 03.08.15
_ Min-Zeit 06:04 18:04 08:04 - 00:04 - 07:04 06:04 00:04
Minimum _ 13,4 C 14 % 1010,3 hPa - 0,0 km/h - 10,1 C 13,4 C 0,0 km/h
Max-Datum _ 06.08.15 05.08.15 04.08.15 09.08.15 06.08.15 - 05.08.15 06.08.15 06.08.15
_ Max-Zeit 18:04 01:04 23:04 23:04 14:04 - 15:04 18:04 14:04
Maximum _ 46,4 C 83 % 1017,0 hPa 2,1 l/m 25,3 km/h
S-SW
- 20,1 C 46,4 C 14,0 km/h
S-SW
Durchschnitt _ 26,3 C 57 % 1013,7 hPa #2,5 l/m 2,1 km/h W 15,7 C 26,2 C 1,1 km/h
www.sexauwetter.de